createdAt,value
2019-05-02T00:01:42.186Z,11.40
2019-05-02T00:04:20.013Z,11.14
2019-05-02T00:06:48.284Z,10.98
2019-05-02T00:09:21.724Z,11.05
2019-05-02T00:11:58.843Z,10.78
2019-05-02T00:14:26.497Z,10.90
2019-05-02T00:16:56.683Z,10.81
2019-05-02T00:19:26.269Z,10.75
2019-05-02T00:21:55.561Z,10.69
2019-05-02T00:24:26.236Z,10.55
2019-05-02T00:26:56.106Z,10.54
2019-05-02T00:29:26.230Z,10.48
2019-05-02T00:31:55.510Z,10.48
2019-05-02T00:34:24.586Z,10.49
2019-05-02T00:36:53.643Z,10.28
2019-05-02T00:39:22.768Z,10.55
2019-05-02T00:41:51.852Z,10.42
2019-05-02T00:44:22.708Z,10.46
2019-05-02T00:46:56.232Z,10.63
2019-05-02T00:49:35.401Z,10.72
2019-05-02T00:52:05.587Z,10.77
2019-05-02T00:54:38.036Z,10.63
2019-05-02T00:57:07.376Z,10.55
2019-05-02T00:59:37.919Z,10.54
2019-05-02T01:02:24.957Z,10.34
2019-05-02T01:04:54.102Z,10.37
2019-05-02T01:07:26.946Z,10.21
2019-05-02T01:09:57.278Z,10.09
2019-05-02T01:12:29.332Z,10.11
2019-05-02T01:14:58.641Z,10.02
2019-05-02T01:17:30.984Z,10.10
2019-05-02T01:20:00.463Z,9.94
2019-05-02T01:22:32.352Z,10.10
2019-05-02T01:25:06.255Z,9.87
2019-05-02T01:27:47.897Z,9.80
2019-05-02T01:30:26.686Z,9.88
2019-05-02T01:33:06.591Z,9.81
2019-05-02T01:35:43.038Z,9.53
2019-05-02T01:38:33.638Z,9.48
2019-05-02T01:41:04.122Z,9.52
2019-05-02T01:43:33.442Z,9.59
2019-05-02T01:46:02.918Z,9.25
2019-05-02T01:48:32.386Z,9.41
2019-05-02T01:51:04.523Z,9.41
2019-05-02T01:53:36.373Z,9.35
2019-05-02T01:56:05.755Z,9.56
2019-05-02T01:58:36.568Z,9.68
2019-05-02T02:01:10.907Z,9.49
2019-05-02T02:03:45.110Z,9.68
2019-05-02T02:06:12.271Z,9.71
2019-05-02T02:08:53.964Z,9.85
2019-05-02T02:11:23.106Z,9.97
2019-05-02T02:13:52.197Z,9.78
2019-05-02T02:16:21.259Z,9.89
2019-05-02T02:18:58.968Z,10.02
2019-05-02T02:21:42.814Z,9.97
2019-05-02T02:24:15.906Z,9.97
2019-05-02T02:26:48.225Z,9.84
2019-05-02T02:29:20.529Z,9.91
2019-05-02T02:31:49.603Z,9.99
2019-05-02T02:34:21.244Z,9.94
2019-05-02T02:36:52.444Z,9.97
2019-05-02T02:39:24.556Z,9.84
2019-05-02T02:41:54.168Z,9.86
2019-05-02T02:44:44.242Z,9.61
2019-05-02T02:47:20.907Z,9.47
2019-05-02T02:49:48.038Z,9.71
2019-05-02T02:52:17.148Z,9.59
2019-05-02T02:54:46.234Z,9.70
2019-05-02T02:57:25.628Z,9.21
2019-05-02T02:59:46.228Z,9.32
2019-05-02T03:02:15.306Z,9.44
2019-05-02T03:04:46.368Z,9.49
2019-05-02T03:07:24.132Z,9.35
2019-05-02T03:09:46.735Z,9.51
2019-05-02T03:12:44.530Z,9.38
2019-05-02T03:15:20.871Z,9.28
2019-05-02T03:17:47.702Z,9.40
2019-05-02T03:20:21.672Z,9.22
2019-05-02T03:22:55.077Z,9.38
2019-05-02T03:25:49.161Z,9.34
2019-05-02T03:27:59.568Z,9.27
2019-05-02T03:30:35.393Z,9.09
2019-05-02T03:33:10.427Z,9.06
2019-05-02T03:35:42.858Z,9.12
2019-05-02T03:38:03.194Z,9.15
2019-05-02T03:40:39.271Z,9.20
2019-05-02T03:43:10.396Z,9.10
2019-05-02T03:45:42.863Z,8.93
2019-05-02T03:48:10.564Z,8.99
2019-05-02T03:50:39.613Z,8.72
2019-05-02T03:53:08.701Z,8.78
2019-05-02T03:55:39.255Z,8.86
2019-05-02T03:58:14.084Z,8.72
2019-05-02T04:01:00.302Z,8.75
2019-05-02T04:03:20.760Z,8.78
2019-05-02T04:05:56.261Z,8.79
2019-05-02T04:08:25.523Z,8.86
2019-05-02T04:11:38.072Z,8.82
2019-05-02T04:13:59.189Z,8.89
2019-05-02T04:16:29.627Z,9.14
2019-05-02T04:19:02.393Z,9.08
2019-05-02T04:21:31.476Z,9.29
2019-05-02T04:24:12.905Z,9.36
2019-05-02T04:26:34.908Z,9.29
2019-05-02T04:29:07.632Z,9.90
2019-05-02T04:31:36.926Z,10.62
2019-05-02T04:34:14.098Z,10.45
2019-05-02T04:36:36.803Z,10.48
2019-05-02T04:39:14.992Z,10.56
2019-05-02T04:41:43.886Z,10.34
2019-05-02T04:44:12.936Z,10.31
2019-05-02T04:46:42.060Z,10.43
2019-05-02T04:49:11.325Z,10.24
2019-05-02T04:51:40.445Z,10.28
2019-05-02T04:54:09.577Z,10.34
2019-05-02T04:56:49.741Z,10.31
2019-05-02T04:59:21.930Z,10.55
2019-05-02T05:01:54.692Z,10.79
2019-05-02T05:04:21.677Z,8.60
2019-05-02T05:06:56.088Z,10.38
2019-05-02T05:09:21.867Z,10.42
2019-05-02T05:11:53.934Z,10.57
2019-05-02T05:14:21.914Z,10.38
2019-05-02T05:16:55.520Z,10.33
2019-05-02T05:19:23.116Z,10.31
2019-05-02T05:21:56.757Z,10.73
2019-05-02T05:24:42.107Z,10.72
2019-05-02T05:27:13.414Z,10.74
2019-05-02T05:29:53.583Z,10.97
2019-05-02T05:32:19.654Z,10.71
2019-05-02T05:34:48.935Z,11.24
2019-05-02T05:37:21.077Z,11.95
2019-05-02T05:39:52.911Z,12.45
2019-05-02T05:42:30.146Z,12.78
2019-05-02T05:44:58.328Z,13.01
2019-05-02T05:47:29.607Z,12.81
2019-05-02T05:50:03.565Z,12.84
2019-05-02T05:52:38.738Z,12.03
2019-05-02T05:55:07.881Z,11.64
2019-05-02T05:57:38.473Z,11.94
2019-05-02T06:00:15.923Z,12.30
2019-05-02T06:02:53.872Z,12.83
2019-05-02T06:05:17.495Z,13.12
2019-05-02T06:07:48.911Z,13.01
2019-05-02T06:10:19.773Z,12.97
2019-05-02T06:12:49.507Z,13.28
2019-05-02T06:15:21.307Z,13.31
2019-05-02T06:17:51.341Z,14.19
2019-05-02T06:20:25.635Z,14.29
2019-05-02T06:23:00.036Z,14.77
2019-05-02T06:25:34.365Z,15.14
2019-05-02T06:28:05.422Z,15.29
2019-05-02T06:30:37.854Z,15.72
2019-05-02T06:33:07.294Z,16.08
2019-05-02T06:35:38.002Z,16.06
2019-05-02T06:38:07.052Z,15.73
2019-05-02T06:40:39.430Z,16.09
2019-05-02T06:43:09.726Z,14.73
2019-05-02T06:45:39.666Z,16.28
2019-05-02T06:48:17.069Z,16.64
2019-05-02T06:50:45.391Z,16.40
2019-05-02T06:53:19.288Z,16.81
2019-05-02T06:55:48.377Z,16.92
2019-05-02T06:58:17.812Z,16.30
2019-05-02T07:00:57.537Z,16.12
2019-05-02T07:03:30.521Z,16.72
2019-05-02T07:06:02.702Z,17.02
2019-05-02T07:08:31.769Z,16.89
2019-05-02T07:11:03.070Z,17.30
2019-05-02T07:13:36.394Z,17.42
2019-05-02T07:16:15.589Z,17.36
2019-05-02T07:18:50.942Z,17.47
2019-05-02T07:21:26.715Z,17.82
2019-05-02T07:23:56.201Z,17.70
2019-05-02T07:26:26.855Z,17.74
2019-05-02T07:28:59.046Z,16.23
2019-05-02T07:31:28.302Z,17.69
2019-05-02T07:33:57.492Z,18.17
2019-05-02T07:36:31.208Z,18.37
2019-05-02T07:39:05.146Z,18.04
2019-05-02T07:41:37.253Z,18.13
2019-05-02T07:44:06.589Z,18.54
2019-05-02T07:46:51.114Z,18.72
2019-05-02T07:49:08.547Z,18.91
2019-05-02T07:51:40.571Z,19.15
2019-05-02T07:54:11.449Z,19.18
2019-05-02T07:56:40.630Z,19.16
2019-05-02T07:59:12.922Z,19.27
2019-05-02T08:01:44.835Z,18.95
2019-05-02T08:04:13.923Z,18.98
2019-05-02T08:06:47.530Z,19.04
2019-05-02T08:09:18.902Z,18.85
2019-05-02T08:11:54.266Z,19.18
2019-05-02T08:14:29.255Z,19.00
2019-05-02T08:17:05.312Z,19.62
2019-05-02T08:19:37.444Z,19.47
2019-05-02T08:22:13.302Z,19.57
2019-05-02T08:24:41.162Z,12.02
2019-05-02T08:27:41.275Z,19.47
2019-05-02T08:30:35.414Z,19.22
2019-05-02T08:33:01.806Z,19.21
2019-05-02T08:35:32.742Z,18.77
2019-05-02T08:38:01.956Z,18.77
2019-05-02T08:40:32.257Z,18.80
2019-05-02T08:43:10.775Z,18.99
2019-05-02T08:45:41.122Z,19.17
2019-05-02T08:48:10.220Z,19.31
2019-05-02T08:50:39.832Z,19.37
2019-05-02T08:53:09.290Z,19.07
2019-05-02T08:55:41.405Z,19.31
2019-05-02T08:58:14.512Z,19.55
2019-05-02T09:00:43.189Z,19.07
2019-05-02T09:03:17.366Z,18.92
2019-05-02T09:05:50.476Z,18.85
2019-05-02T09:08:21.647Z,18.48
2019-05-02T09:10:51.716Z,18.59
2019-05-02T09:13:26.004Z,18.53
2019-05-02T09:16:05.574Z,18.87
2019-05-02T09:18:40.621Z,18.85
2019-05-02T09:21:08.153Z,19.01
2019-05-02T09:23:37.396Z,18.59
2019-05-02T09:26:07.498Z,17.76
2019-05-02T09:28:37.689Z,19.18
2019-05-02T09:31:12.047Z,19.46
2019-05-02T09:33:46.802Z,19.75
2019-05-02T09:36:18.853Z,19.80
2019-05-02T09:38:57.701Z,20.26
2019-05-02T09:41:32.441Z,19.76
2019-05-02T09:44:04.141Z,18.97
2019-05-02T09:46:35.680Z,19.20
2019-05-02T09:49:13.385Z,18.94
2019-05-02T09:51:37.809Z,19.81
2019-05-02T09:54:06.999Z,19.03
2019-05-02T09:56:36.277Z,19.99
2019-05-02T09:59:26.752Z,19.05
2019-05-02T10:01:42.245Z,18.75
2019-05-02T10:04:12.782Z,19.24
2019-05-02T10:06:43.053Z,19.62
2019-05-02T10:09:12.283Z,20.02
2019-05-02T10:11:41.880Z,18.54
2019-05-02T10:14:12.976Z,18.17
2019-05-02T10:16:44.565Z,18.77
2019-05-02T10:19:14.115Z,19.19
2019-05-02T10:21:47.123Z,19.22
2019-05-02T10:24:17.003Z,18.57
2019-05-02T10:26:55.336Z,18.88
2019-05-02T10:29:28.287Z,19.26
2019-05-02T10:31:56.004Z,19.85
2019-05-02T10:34:32.793Z,19.61
2019-05-02T10:37:09.319Z,19.33
2019-05-02T10:39:39.006Z,19.41
2019-05-02T10:42:08.092Z,19.56
2019-05-02T10:44:37.354Z,19.63
2019-05-02T10:47:07.281Z,20.08
2019-05-02T10:50:05.677Z,18.65
2019-05-02T10:52:34.775Z,19.03
2019-05-02T10:55:04.874Z,19.83
2019-05-02T10:57:37.819Z,19.90
2019-05-02T11:00:09.613Z,19.43
2019-05-02T11:03:00.246Z,18.29
2019-05-02T11:05:32.700Z,18.90
2019-05-02T11:08:06.176Z,19.45
2019-05-02T11:10:32.761Z,20.23
2019-05-02T11:13:23.940Z,20.21
2019-05-02T11:16:18.030Z,19.53
2019-05-02T11:18:57.214Z,19.91
2019-05-02T11:21:27.585Z,19.95
2019-05-02T11:23:57.636Z,20.55
2019-05-02T11:26:27.402Z,20.29
2019-05-02T11:28:56.851Z,19.37
2019-05-02T11:31:26.317Z,17.85
2019-05-02T11:33:58.134Z,19.75
2019-05-02T11:36:32.873Z,20.42
2019-05-02T11:39:13.680Z,20.20
2019-05-02T11:41:36.675Z,20.05
2019-05-02T11:44:13.096Z,20.26
2019-05-02T11:46:46.857Z,20.27
2019-05-02T11:49:17.292Z,19.81
2019-05-02T11:51:52.664Z,20.12
2019-05-02T11:54:22.561Z,19.90
2019-05-02T11:56:54.984Z,20.02
2019-05-02T11:59:28.079Z,19.75
2019-05-02T12:02:36.675Z,19.85
2019-05-02T12:05:12.808Z,19.47
2019-05-02T12:07:42.625Z,19.51
2019-05-02T12:10:16.754Z,19.31
2019-05-02T12:12:46.453Z,19.88
2019-05-02T12:15:15.957Z,19.69
2019-05-02T12:17:48.582Z,19.41
2019-05-02T12:20:17.715Z,19.51
2019-05-02T12:22:49.151Z,18.39
2019-05-02T12:25:19.138Z,19.39
2019-05-02T12:27:48.217Z,19.77
2019-05-02T12:30:20.120Z,20.34
2019-05-02T12:32:53.809Z,19.65
2019-05-02T12:35:23.187Z,19.55
2019-05-02T12:37:55.179Z,19.07
2019-05-02T12:40:23.349Z,19.28
2019-05-02T12:42:52.698Z,19.15
2019-05-02T12:45:22.317Z,19.82
2019-05-02T12:47:53.869Z,19.88
2019-05-02T12:50:23.238Z,19.74
2019-05-02T12:52:55.597Z,19.99
2019-05-02T12:55:23.564Z,20.13
2019-05-02T12:57:52.801Z,19.95
2019-05-02T13:00:23.882Z,20.67
2019-05-02T13:03:01.984Z,20.56
2019-05-02T13:05:33.068Z,20.85
2019-05-02T13:08:03.198Z,21.24
2019-05-02T13:11:01.923Z,20.64
2019-05-02T13:13:25.221Z,20.10
2019-05-02T13:16:00.388Z,21.26
2019-05-02T13:18:32.637Z,21.46
2019-05-02T13:21:02.258Z,21.07
2019-05-02T13:23:51.960Z,20.71
2019-05-02T13:26:26.565Z,20.63
2019-05-02T13:28:53.016Z,21.48
2019-05-02T13:31:45.975Z,20.72
2019-05-02T13:34:22.376Z,20.67
2019-05-02T13:37:05.487Z,20.24
2019-05-02T13:39:45.449Z,19.75
2019-05-02T13:42:15.309Z,19.57
2019-05-02T13:44:57.433Z,19.32
2019-05-02T13:47:27.237Z,20.01
2019-05-02T13:50:01.663Z,20.25
2019-05-02T13:52:33.080Z,20.21
2019-05-02T13:55:02.161Z,20.37
2019-05-02T13:57:34.924Z,20.09
2019-05-02T14:00:06.038Z,19.72
2019-05-02T14:02:38.640Z,20.01
2019-05-02T14:05:18.449Z,20.18
2019-05-02T14:07:57.196Z,20.66
2019-05-02T14:10:39.337Z,21.36
2019-05-02T14:13:07.677Z,20.70
2019-05-02T14:15:39.419Z,20.60
2019-05-02T14:18:08.625Z,20.87
2019-05-02T14:20:40.054Z,13.05
2019-05-02T14:23:12.194Z,20.24
2019-05-02T14:25:42.878Z,20.11
2019-05-02T14:28:13.966Z,20.35
2019-05-02T14:30:46.295Z,19.90
2019-05-02T14:33:20.445Z,20.31
2019-05-02T14:35:52.626Z,20.50
2019-05-02T14:38:27.790Z,20.38
2019-05-02T14:41:09.807Z,20.87
2019-05-02T14:43:57.197Z,20.38
2019-05-02T14:46:34.158Z,20.57
2019-05-02T14:49:03.353Z,20.44
2019-05-02T14:51:36.465Z,20.82
2019-05-02T14:54:09.195Z,20.07
2019-05-02T14:57:02.008Z,20.23
2019-05-02T14:59:32.759Z,19.89
2019-05-02T15:02:07.523Z,20.21
2019-05-02T15:04:44.675Z,20.30
2019-05-02T15:07:17.642Z,19.84
2019-05-02T15:09:46.445Z,20.21
2019-05-02T15:12:19.196Z,19.77
2019-05-02T15:14:57.439Z,19.24
2019-05-02T15:17:23.460Z,19.19
2019-05-02T15:19:55.764Z,18.56
2019-05-02T15:22:27.546Z,18.22
2019-05-02T15:25:02.671Z,17.12
2019-05-02T15:27:40.151Z,16.33
2019-05-02T15:30:07.691Z,15.64
2019-05-02T15:32:58.852Z,14.61
2019-05-02T15:36:03.057Z,13.48
2019-05-02T15:38:32.182Z,13.25
2019-05-02T15:41:05.086Z,12.95
2019-05-02T15:43:31.864Z,12.90
2019-05-02T15:46:02.714Z,12.82
2019-05-02T15:48:32.447Z,12.66
2019-05-02T15:51:06.103Z,12.63
2019-05-02T15:54:05.925Z,12.46
2019-05-02T15:56:28.943Z,12.77
2019-05-02T15:59:03.412Z,12.80
2019-05-02T16:01:54.210Z,13.18
2019-05-02T16:04:26.968Z,13.25
2019-05-02T16:07:00.369Z,13.66
2019-05-02T16:09:32.958Z,13.58
2019-05-02T16:12:03.077Z,13.91
2019-05-02T16:14:36.112Z,14.38
2019-05-02T16:17:05.528Z,15.04
2019-05-02T16:19:39.062Z,14.83
2019-05-02T16:22:16.311Z,15.11
2019-05-02T16:24:48.998Z,14.89
2019-05-02T16:27:24.271Z,15.27
2019-05-02T16:29:52.147Z,15.37
2019-05-02T16:32:35.684Z,14.95
2019-05-02T16:35:12.285Z,14.28
2019-05-02T16:37:42.090Z,14.29
2019-05-02T16:40:15.175Z,13.70
2019-05-02T16:42:44.337Z,13.40
2019-05-02T16:45:13.702Z,13.64
2019-05-02T16:47:45.246Z,13.97
2019-05-02T16:50:18.688Z,14.13
2019-05-02T16:52:48.865Z,5.93
2019-05-02T16:55:26.604Z,13.70
2019-05-02T16:58:05.178Z,13.96
2019-05-02T17:00:29.463Z,13.95
2019-05-02T17:03:06.105Z,13.84
2019-05-02T17:05:44.224Z,14.15
2019-05-02T17:08:33.039Z,13.74
2019-05-02T17:11:09.938Z,13.53
2019-05-02T17:13:38.989Z,13.35
2019-05-02T17:16:12.953Z,13.27
2019-05-02T17:18:43.435Z,13.17
2019-05-02T17:21:12.904Z,13.11
2019-05-02T17:23:49.826Z,12.92
2019-05-02T17:26:18.788Z,13.06
2019-05-02T17:28:53.049Z,12.98
2019-05-02T17:31:32.243Z,12.92
2019-05-02T17:34:02.757Z,13.03
2019-05-02T17:36:35.519Z,13.44
2019-05-02T17:39:08.345Z,13.62
2019-05-02T17:41:42.333Z,13.47
2019-05-02T17:44:12.857Z,13.38
2019-05-02T17:46:42.842Z,13.42
2019-05-02T17:49:13.568Z,13.30
2019-05-02T17:52:05.643Z,13.81
2019-05-02T17:54:32.015Z,13.46
2019-05-02T17:57:02.175Z,13.19
2019-05-02T17:59:34.437Z,13.41
2019-05-02T18:02:06.493Z,13.33
2019-05-02T18:04:35.760Z,13.57
2019-05-02T18:07:06.685Z,13.42
2019-05-02T18:09:35.890Z,13.38
2019-05-02T18:12:11.479Z,13.55
2019-05-02T18:14:36.448Z,13.92
2019-05-02T18:17:05.614Z,14.11
2019-05-02T18:19:35.837Z,13.81
2019-05-02T18:22:07.160Z,13.36
2019-05-02T18:24:42.782Z,11.58
2019-05-02T18:27:10.054Z,13.23
2019-05-02T18:29:42.550Z,11.68
2019-05-02T18:32:10.243Z,13.09
2019-05-02T18:34:42.776Z,13.20
2019-05-02T18:37:13.365Z,13.37
2019-05-02T18:39:49.890Z,13.29
2019-05-02T18:42:21.974Z,13.40
2019-05-02T18:44:53.047Z,13.42
2019-05-02T18:47:21.683Z,13.59
2019-05-02T18:49:53.764Z,13.80
2019-05-02T18:52:23.848Z,13.24
2019-05-02T18:54:52.893Z,13.51
2019-05-02T18:57:26.220Z,13.03
2019-05-02T18:59:56.476Z,13.41
2019-05-02T19:02:31.150Z,13.12
2019-05-02T19:04:57.065Z,12.84
2019-05-02T19:07:35.112Z,12.60
2019-05-02T19:10:05.758Z,12.59
2019-05-02T19:12:32.793Z,12.23
2019-05-02T19:15:03.157Z,12.36
2019-05-02T19:17:38.414Z,12.41
2019-05-02T19:20:26.190Z,12.37
2019-05-02T19:22:56.934Z,12.23
2019-05-02T19:25:27.198Z,12.12
2019-05-02T19:28:06.476Z,12.01
2019-05-02T19:30:37.353Z,12.10
2019-05-02T19:33:07.999Z,11.98
2019-05-02T19:35:46.794Z,11.93
2019-05-02T19:38:17.180Z,11.88
2019-05-02T19:40:46.560Z,11.67
2019-05-02T19:43:18.726Z,11.67
2019-05-02T19:45:51.236Z,3.10
2019-05-02T19:48:22.685Z,2.52
2019-05-02T19:50:52.865Z,11.57
2019-05-02T19:53:22.872Z,11.73
2019-05-02T19:55:57.167Z,3.74
2019-05-02T19:58:28.319Z,12.23
2019-05-02T20:00:59.652Z,11.69
2019-05-02T20:03:32.317Z,11.59
2019-05-02T20:06:06.090Z,11.55
2019-05-02T20:08:33.903Z,11.81
2019-05-02T20:11:03.133Z,11.96
2019-05-02T20:13:34.799Z,11.86
2019-05-02T20:16:13.473Z,11.83
2019-05-02T20:18:47.308Z,11.95
2019-05-02T20:21:42.995Z,11.93
2019-05-02T20:24:19.407Z,11.77
2019-05-02T20:26:52.513Z,11.96
2019-05-02T20:29:18.008Z,11.90
2019-05-02T20:31:47.982Z,12.49
2019-05-02T20:34:17.056Z,12.28
2019-05-02T20:36:46.128Z,12.32
2019-05-02T20:39:15.216Z,12.04
2019-05-02T20:41:44.293Z,11.92
2019-05-02T20:44:13.348Z,11.83
2019-05-02T20:46:42.418Z,11.67
2019-05-02T20:49:12.835Z,11.79
2019-05-02T20:51:42.469Z,11.99
2019-05-02T20:54:12.528Z,12.24
2019-05-02T20:56:42.637Z,12.14
2019-05-02T20:59:12.721Z,12.41
2019-05-02T21:01:42.916Z,11.80
2019-05-02T21:04:12.263Z,12.41
2019-05-02T21:07:14.561Z,12.41
2019-05-02T21:10:08.687Z,12.51
2019-05-02T21:12:52.773Z,12.49
2019-05-02T21:15:25.775Z,12.50
2019-05-02T21:17:55.306Z,12.53
2019-05-02T21:20:25.727Z,12.76
2019-05-02T21:22:56.311Z,12.12
2019-05-02T21:25:25.393Z,12.04
2019-05-02T21:27:54.524Z,12.06
2019-05-02T21:30:26.854Z,11.98
2019-05-02T21:32:58.196Z,12.12
2019-05-02T21:35:31.913Z,12.27
2019-05-02T21:38:01.149Z,11.93
2019-05-02T21:40:32.561Z,11.71
2019-05-02T21:43:02.461Z,12.20
2019-05-02T21:45:31.834Z,12.37
2019-05-02T21:48:02.332Z,4.27
2019-05-02T21:50:46.719Z,12.19
2019-05-02T21:53:41.536Z,11.89
2019-05-02T21:56:19.387Z,12.01
2019-05-02T21:59:08.085Z,11.66
2019-05-02T22:01:46.727Z,11.85
2019-05-02T22:04:15.751Z,12.07
2019-05-02T22:06:49.422Z,12.10
2019-05-02T22:09:22.862Z,11.47
2019-05-02T22:11:54.331Z,11.71
2019-05-02T22:14:23.582Z,12.03
2019-05-02T22:16:53.222Z,11.97
2019-05-02T22:19:22.821Z,11.90
2019-05-02T22:21:52.505Z,11.62
2019-05-02T22:24:21.786Z,11.59
2019-05-02T22:26:52.736Z,11.74
2019-05-02T22:29:22.031Z,11.75
2019-05-02T22:31:52.171Z,11.78
2019-05-02T22:34:22.174Z,12.01
2019-05-02T22:36:53.889Z,12.17
2019-05-02T22:39:46.028Z,11.85
2019-05-02T22:42:22.004Z,11.81
2019-05-02T22:44:51.113Z,11.83
2019-05-02T22:47:25.545Z,11.67
2019-05-02T22:49:56.115Z,11.69
2019-05-02T22:52:32.263Z,11.73
2019-05-02T22:55:02.993Z,11.75
2019-05-02T22:57:32.573Z,11.64
2019-05-02T23:00:02.292Z,11.51
2019-05-02T23:02:34.940Z,11.68
2019-05-02T23:05:05.578Z,11.24
2019-05-02T23:07:37.629Z,11.26
2019-05-02T23:10:08.343Z,11.22
2019-05-02T23:12:38.559Z,11.27
2019-05-02T23:15:07.856Z,11.66
2019-05-02T23:17:45.422Z,11.55
2019-05-02T23:20:14.837Z,11.29
2019-05-02T23:22:46.305Z,11.52
2019-05-02T23:25:42.141Z,11.38
2019-05-02T23:28:15.894Z,11.28
2019-05-02T23:30:48.526Z,11.43
2019-05-02T23:33:17.653Z,11.23
2019-05-02T23:35:46.845Z,11.31
2019-05-02T23:38:17.037Z,11.09
2019-05-02T23:40:47.335Z,11.38
2019-05-02T23:43:17.127Z,11.34
2019-05-02T23:45:46.223Z,11.46
2019-05-02T23:48:18.989Z,11.29
2019-05-02T23:50:52.064Z,11.42
2019-05-02T23:53:25.216Z,11.23
2019-05-02T23:55:55.409Z,11.21
2019-05-02T23:58:25.169Z,11.30
